sensor_id;sensor_type;location;lat;lon;timestamp;P1;durP1;ratioP1;P2;durP2;ratioP2
11008;SDS011;5557;51.670;7.788;2024-02-16T00:00:09;2.63;;;1.17;;
11008;SDS011;5557;51.670;7.788;2024-02-16T00:02:39;1.83;;;1.30;;
11008;SDS011;5557;51.670;7.788;2024-02-16T00:05:10;3.13;;;1.10;;
11008;SDS011;5557;51.670;7.788;2024-02-16T00:07:39;1.20;;;1.00;;
11008;SDS011;5557;51.670;7.788;2024-02-16T00:10:06;2.20;;;1.20;;
11008;SDS011;5557;51.670;7.788;2024-02-16T00:12:35;2.90;;;1.20;;
11008;SDS011;5557;51.670;7.788;2024-02-16T00:15:03;1.87;;;1.40;;
11008;SDS011;5557;51.670;7.788;2024-02-16T00:17:30;2.03;;;1.10;;
11008;SDS011;5557;51.670;7.788;2024-02-16T00:19:57;1.83;;;1.27;;
11008;SDS011;5557;51.670;7.788;2024-02-16T00:22:25;4.80;;;1.67;;
11008;SDS011;5557;51.670;7.788;2024-02-16T00:24:52;3.00;;;1.67;;
11008;SDS011;5557;51.670;7.788;2024-02-16T00:27:19;3.73;;;1.27;;
11008;SDS011;5557;51.670;7.788;2024-02-16T00:29:46;4.67;;;1.23;;
11008;SDS011;5557;51.670;7.788;2024-02-16T00:32:14;1.40;;;1.30;;
11008;SDS011;5557;51.670;7.788;2024-02-16T00:34:44;3.43;;;1.57;;
11008;SDS011;5557;51.670;7.788;2024-02-16T00:37:11;1.63;;;1.37;;
11008;SDS011;5557;51.670;7.788;2024-02-16T00:39:38;1.50;;;1.23;;
11008;SDS011;5557;51.670;7.788;2024-02-16T00:42:09;2.30;;;1.47;;
11008;SDS011;5557;51.670;7.788;2024-02-16T00:44:37;2.50;;;1.47;;
11008;SDS011;5557;51.670;7.788;2024-02-16T00:47:05;2.07;;;1.97;;
11008;SDS011;5557;51.670;7.788;2024-02-16T00:49:32;3.40;;;1.47;;
11008;SDS011;5557;51.670;7.788;2024-02-16T00:52:00;3.57;;;1.60;;
11008;SDS011;5557;51.670;7.788;2024-02-16T00:54:28;2.30;;;1.40;;
11008;SDS011;5557;51.670;7.788;2024-02-16T00:56:55;2.60;;;1.43;;
11008;SDS011;5557;51.670;7.788;2024-02-16T00:59:28;2.20;;;1.40;;
11008;SDS011;5557;51.670;7.788;2024-02-16T01:01:55;4.10;;;1.67;;
11008;SDS011;5557;51.670;7.788;2024-02-16T01:04:22;1.60;;;1.50;;
11008;SDS011;5557;51.670;7.788;2024-02-16T01:06:49;2.87;;;1.30;;
11008;SDS011;5557;51.670;7.788;2024-02-16T01:09:16;3.10;;;1.10;;
11008;SDS011;5557;51.670;7.788;2024-02-16T01:11:43;2.13;;;1.43;;
11008;SDS011;5557;51.670;7.788;2024-02-16T01:14:11;1.83;;;1.30;;
11008;SDS011;5557;51.670;7.788;2024-02-16T01:16:38;2.30;;;1.40;;
11008;SDS011;5557;51.670;7.788;2024-02-16T01:19:06;1.73;;;1.50;;
11008;SDS011;5557;51.670;7.788;2024-02-16T01:21:34;3.33;;;2.10;;
11008;SDS011;5557;51.670;7.788;2024-02-16T01:24:01;3.23;;;1.43;;
11008;SDS011;5557;51.670;7.788;2024-02-16T01:26:28;2.90;;;1.60;;
11008;SDS011;5557;51.670;7.788;2024-02-16T01:28:56;4.33;;;2.07;;
11008;SDS011;5557;51.670;7.788;2024-02-16T01:31:24;3.00;;;2.07;;
11008;SDS011;5557;51.670;7.788;2024-02-16T01:33:52;5.83;;;1.57;;
11008;SDS011;5557;51.670;7.788;2024-02-16T01:36:19;2.20;;;2.10;;
11008;SDS011;5557;51.670;7.788;2024-02-16T01:38:46;2.80;;;2.07;;
11008;SDS011;5557;51.670;7.788;2024-02-16T01:41:14;3.40;;;1.50;;
11008;SDS011;5557;51.670;7.788;2024-02-16T01:43:41;1.50;;;1.40;;
11008;SDS011;5557;51.670;7.788;2024-02-16T01:46:08;2.17;;;1.50;;
11008;SDS011;5557;51.670;7.788;2024-02-16T01:48:36;1.60;;;1.50;;
11008;SDS011;5557;51.670;7.788;2024-02-16T01:51:07;1.80;;;1.53;;
11008;SDS011;5557;51.670;7.788;2024-02-16T01:53:36;4.23;;;1.80;;
11008;SDS011;5557;51.670;7.788;2024-02-16T01:56:04;1.90;;;1.40;;
11008;SDS011;5557;51.670;7.788;2024-02-16T01:58:33;1.43;;;1.33;;
11008;SDS011;5557;51.670;7.788;2024-02-16T02:01:00;1.63;;;1.53;;
11008;SDS011;5557;51.670;7.788;2024-02-16T02:03:28;6.87;;;1.40;;
11008;SDS011;5557;51.670;7.788;2024-02-16T02:05:56;1.57;;;1.47;;
11008;SDS011;5557;51.670;7.788;2024-02-16T02:08:23;1.63;;;1.53;;
11008;SDS011;5557;51.670;7.788;2024-02-16T02:10:52;2.10;;;1.90;;
11008;SDS011;5557;51.670;7.788;2024-02-16T02:13:19;1.70;;;1.60;;
11008;SDS011;5557;51.670;7.788;2024-02-16T02:15:48;2.30;;;1.33;;
11008;SDS011;5557;51.670;7.788;2024-02-16T02:18:16;2.40;;;1.53;;
11008;SDS011;5557;51.670;7.788;2024-02-16T02:20:43;2.80;;;1.40;;
11008;SDS011;5557;51.670;7.788;2024-02-16T02:23:10;3.60;;;1.97;;
11008;SDS011;5557;51.670;7.788;2024-02-16T02:25:37;1.73;;;1.30;;
11008;SDS011;5557;51.670;7.788;2024-02-16T02:28:06;7.17;;;2.20;;
11008;SDS011;5557;51.670;7.788;2024-02-16T02:30:34;4.33;;;1.83;;
11008;SDS011;5557;51.670;7.788;2024-02-16T02:33:05;4.70;;;1.80;;
11008;SDS011;5557;51.670;7.788;2024-02-16T02:35:33;5.27;;;1.87;;
11008;SDS011;5557;51.670;7.788;2024-02-16T02:38:00;2.50;;;1.90;;
11008;SDS011;5557;51.670;7.788;2024-02-16T02:40:27;2.70;;;2.03;;
11008;SDS011;5557;51.670;7.788;2024-02-16T02:42:54;1.87;;;1.77;;
11008;SDS011;5557;51.670;7.788;2024-02-16T02:45:21;1.93;;;1.60;;
11008;SDS011;5557;51.670;7.788;2024-02-16T02:47:48;3.00;;;1.70;;
11008;SDS011;5557;51.670;7.788;2024-02-16T02:50:15;3.20;;;1.70;;
11008;SDS011;5557;51.670;7.788;2024-02-16T02:52:43;2.00;;;1.60;;
11008;SDS011;5557;51.670;7.788;2024-02-16T02:55:12;3.20;;;2.60;;
11008;SDS011;5557;51.670;7.788;2024-02-16T02:57:39;2.30;;;2.20;;
11008;SDS011;5557;51.670;7.788;2024-02-16T03:00:06;2.63;;;1.80;;
11008;SDS011;5557;51.670;7.788;2024-02-16T03:02:38;2.27;;;2.00;;
11008;SDS011;5557;51.670;7.788;2024-02-16T03:05:06;2.60;;;1.60;;
11008;SDS011;5557;51.670;7.788;2024-02-16T03:07:34;1.90;;;1.80;;
11008;SDS011;5557;51.670;7.788;2024-02-16T03:10:01;2.20;;;1.83;;
11008;SDS011;5557;51.670;7.788;2024-02-16T03:12:30;2.83;;;2.17;;
11008;SDS011;5557;51.670;7.788;2024-02-16T03:14:58;2.70;;;2.50;;
11008;SDS011;5557;51.670;7.788;2024-02-16T03:17:26;3.50;;;2.50;;
11008;SDS011;5557;51.670;7.788;2024-02-16T03:19:53;3.20;;;2.40;;
11008;SDS011;5557;51.670;7.788;2024-02-16T03:22:20;3.43;;;1.90;;
11008;SDS011;5557;51.670;7.788;2024-02-16T03:24:47;2.60;;;1.63;;
11008;SDS011;5557;51.670;7.788;2024-02-16T03:27:15;2.63;;;1.90;;
11008;SDS011;5557;51.670;7.788;2024-02-16T03:29:42;2.17;;;1.97;;
11008;SDS011;5557;51.670;7.788;2024-02-16T03:32:09;1.97;;;1.87;;
11008;SDS011;5557;51.670;7.788;2024-02-16T03:34:36;3.03;;;2.10;;
11008;SDS011;5557;51.670;7.788;2024-02-16T03:37:04;1.90;;;1.80;;
11008;SDS011;5557;51.670;7.788;2024-02-16T03:39:31;2.30;;;1.70;;
11008;SDS011;5557;51.670;7.788;2024-02-16T03:41:58;2.00;;;1.80;;
11008;SDS011;5557;51.670;7.788;2024-02-16T03:44:25;3.03;;;1.63;;
11008;SDS011;5557;51.670;7.788;2024-02-16T03:46:52;1.97;;;1.50;;
11008;SDS011;5557;51.670;7.788;2024-02-16T03:49:22;2.10;;;2.00;;
11008;SDS011;5557;51.670;7.788;2024-02-16T03:51:49;2.60;;;1.83;;
11008;SDS011;5557;51.670;7.788;2024-02-16T03:54:16;6.70;;;2.10;;
11008;SDS011;5557;51.670;7.788;2024-02-16T03:56:43;2.10;;;1.97;;
11008;SDS011;5557;51.670;7.788;2024-02-16T03:59:11;1.70;;;1.50;;
11008;SDS011;5557;51.670;7.788;2024-02-16T04:01:38;4.63;;;1.60;;
11008;SDS011;5557;51.670;7.788;2024-02-16T04:04:08;1.60;;;1.50;;
11008;SDS011;5557;51.670;7.788;2024-02-16T04:06:36;3.37;;;1.67;;
11008;SDS011;5557;51.670;7.788;2024-02-16T04:09:03;3.10;;;2.00;;
11008;SDS011;5557;51.670;7.788;2024-02-16T04:11:32;2.57;;;1.70;;
11008;SDS011;5557;51.670;7.788;2024-02-16T04:14:00;3.33;;;1.73;;
11008;SDS011;5557;51.670;7.788;2024-02-16T04:16:28;1.50;;;1.40;;
11008;SDS011;5557;51.670;7.788;2024-02-16T04:18:55;2.10;;;1.73;;
11008;SDS011;5557;51.670;7.788;2024-02-16T04:21:22;1.73;;;1.63;;
11008;SDS011;5557;51.670;7.788;2024-02-16T04:23:50;4.30;;;2.90;;
11008;SDS011;5557;51.670;7.788;2024-02-16T04:26:17;2.07;;;1.97;;
11008;SDS011;5557;51.670;7.788;2024-02-16T04:28:44;4.93;;;2.10;;
11008;SDS011;5557;51.670;7.788;2024-02-16T04:31:11;1.33;;;1.23;;
11008;SDS011;5557;51.670;7.788;2024-02-16T04:33:38;6.10;;;1.83;;
11008;SDS011;5557;51.670;7.788;2024-02-16T04:36:06;2.40;;;1.30;;
11008;SDS011;5557;51.670;7.788;2024-02-16T04:38:34;2.83;;;1.67;;
11008;SDS011;5557;51.670;7.788;2024-02-16T04:41:05;1.40;;;1.30;;
11008;SDS011;5557;51.670;7.788;2024-02-16T04:43:32;6.80;;;1.80;;
11008;SDS011;5557;51.670;7.788;2024-02-16T04:45:59;1.50;;;1.40;;
11008;SDS011;5557;51.670;7.788;2024-02-16T04:48:26;4.33;;;1.67;;
11008;SDS011;5557;51.670;7.788;2024-02-16T04:50:54;3.10;;;1.60;;
11008;SDS011;5557;51.670;7.788;2024-02-16T04:53:22;4.60;;;1.70;;
11008;SDS011;5557;51.670;7.788;2024-02-16T04:55:49;1.80;;;1.67;;
11008;SDS011;5557;51.670;7.788;2024-02-16T04:58:16;2.50;;;1.80;;
11008;SDS011;5557;51.670;7.788;2024-02-16T05:00:43;1.77;;;1.23;;
11008;SDS011;5557;51.670;7.788;2024-02-16T05:03:13;2.30;;;1.57;;
11008;SDS011;5557;51.670;7.788;2024-02-16T05:05:40;1.70;;;1.60;;
11008;SDS011;5557;51.670;7.788;2024-02-16T05:08:07;1.80;;;1.50;;
11008;SDS011;5557;51.670;7.788;2024-02-16T05:10:34;8.80;;;1.93;;
11008;SDS011;5557;51.670;7.788;2024-02-16T05:13:04;4.33;;;1.50;;
11008;SDS011;5557;51.670;7.788;2024-02-16T05:15:32;3.40;;;2.10;;
11008;SDS011;5557;51.670;7.788;2024-02-16T05:17:59;1.70;;;1.37;;
11008;SDS011;5557;51.670;7.788;2024-02-16T05:20:27;1.77;;;1.67;;
11008;SDS011;5557;51.670;7.788;2024-02-16T05:22:54;1.60;;;1.50;;
11008;SDS011;5557;51.670;7.788;2024-02-16T05:25:23;2.03;;;1.47;;
11008;SDS011;5557;51.670;7.788;2024-02-16T05:27:50;1.60;;;1.50;;
11008;SDS011;5557;51.670;7.788;2024-02-16T05:30:17;1.67;;;1.50;;
11008;SDS011;5557;51.670;7.788;2024-02-16T05:32:45;3.23;;;1.30;;
11008;SDS011;5557;51.670;7.788;2024-02-16T05:35:12;2.87;;;1.60;;
11008;SDS011;5557;51.670;7.788;2024-02-16T05:37:43;3.20;;;1.77;;
11008;SDS011;5557;51.670;7.788;2024-02-16T05:40:14;3.90;;;1.70;;
11008;SDS011;5557;51.670;7.788;2024-02-16T05:42:54;6.13;;;2.53;;
11008;SDS011;5557;51.670;7.788;2024-02-16T05:45:25;1.87;;;1.77;;
11008;SDS011;5557;51.670;7.788;2024-02-16T05:47:54;1.53;;;1.43;;
11008;SDS011;5557;51.670;7.788;2024-02-16T05:50:22;2.07;;;1.80;;
11008;SDS011;5557;51.670;7.788;2024-02-16T05:52:50;1.70;;;1.57;;
11008;SDS011;5557;51.670;7.788;2024-02-16T05:55:18;1.50;;;1.40;;
11008;SDS011;5557;51.670;7.788;2024-02-16T05:57:45;3.10;;;2.40;;
11008;SDS011;5557;51.670;7.788;2024-02-16T06:00:14;2.23;;;2.03;;
11008;SDS011;5557;51.670;7.788;2024-02-16T06:02:42;1.93;;;1.83;;
11008;SDS011;5557;51.670;7.788;2024-02-16T06:05:09;1.77;;;1.67;;
11008;SDS011;5557;51.670;7.788;2024-02-16T06:07:37;1.60;;;1.50;;
11008;SDS011;5557;51.670;7.788;2024-02-16T06:10:06;2.20;;;2.10;;
11008;SDS011;5557;51.670;7.788;2024-02-16T06:12:37;5.93;;;2.27;;
11008;SDS011;5557;51.670;7.788;2024-02-16T06:15:05;2.00;;;1.70;;
11008;SDS011;5557;51.670;7.788;2024-02-16T06:17:33;10.03;;;1.97;;
11008;SDS011;5557;51.670;7.788;2024-02-16T06:20:02;2.03;;;1.93;;
11008;SDS011;5557;51.670;7.788;2024-02-16T06:22:33;4.50;;;2.13;;
11008;SDS011;5557;51.670;7.788;2024-02-16T06:25:00;3.60;;;2.63;;
11008;SDS011;5557;51.670;7.788;2024-02-16T06:27:28;2.33;;;2.10;;
11008;SDS011;5557;51.670;7.788;2024-02-16T06:29:55;2.83;;;2.10;;
11008;SDS011;5557;51.670;7.788;2024-02-16T06:32:22;1.80;;;1.70;;
11008;SDS011;5557;51.670;7.788;2024-02-16T06:34:50;4.33;;;1.80;;
11008;SDS011;5557;51.670;7.788;2024-02-16T06:37:17;4.40;;;2.70;;
11008;SDS011;5557;51.670;7.788;2024-02-16T06:39:45;22.20;;;15.40;;
11008;SDS011;5557;51.670;7.788;2024-02-16T06:42:12;3.03;;;2.40;;
11008;SDS011;5557;51.670;7.788;2024-02-16T06:44:39;8.30;;;2.40;;
11008;SDS011;5557;51.670;7.788;2024-02-16T06:47:06;3.63;;;2.07;;
11008;SDS011;5557;51.670;7.788;2024-02-16T06:49:34;4.67;;;3.07;;
11008;SDS011;5557;51.670;7.788;2024-02-16T06:52:01;8.53;;;2.27;;
11008;SDS011;5557;51.670;7.788;2024-02-16T06:54:28;2.30;;;2.10;;
11008;SDS011;5557;51.670;7.788;2024-02-16T06:56:55;6.47;;;2.70;;
11008;SDS011;5557;51.670;7.788;2024-02-16T06:59:22;4.37;;;1.83;;
11008;SDS011;5557;51.670;7.788;2024-02-16T07:01:49;2.07;;;1.90;;
11008;SDS011;5557;51.670;7.788;2024-02-16T07:04:16;4.60;;;2.03;;
11008;SDS011;5557;51.670;7.788;2024-02-16T07:06:44;2.50;;;2.30;;
11008;SDS011;5557;51.670;7.788;2024-02-16T07:09:11;6.17;;;2.23;;
11008;SDS011;5557;51.670;7.788;2024-02-16T07:11:41;4.57;;;2.13;;
11008;SDS011;5557;51.670;7.788;2024-02-16T07:14:08;5.77;;;1.83;;
11008;SDS011;5557;51.670;7.788;2024-02-16T07:16:36;2.53;;;1.67;;
11008;SDS011;5557;51.670;7.788;2024-02-16T07:19:03;4.70;;;2.10;;
11008;SDS011;5557;51.670;7.788;2024-02-16T07:21:32;2.10;;;2.00;;
11008;SDS011;5557;51.670;7.788;2024-02-16T07:23:59;5.03;;;1.57;;
11008;SDS011;5557;51.670;7.788;2024-02-16T07:26:26;1.70;;;1.60;;
11008;SDS011;5557;51.670;7.788;2024-02-16T07:28:53;2.53;;;2.23;;
11008;SDS011;5557;51.670;7.788;2024-02-16T07:31:20;2.30;;;2.10;;
11008;SDS011;5557;51.670;7.788;2024-02-16T07:33:48;4.00;;;1.80;;
11008;SDS011;5557;51.670;7.788;2024-02-16T07:36:15;1.90;;;1.70;;
11008;SDS011;5557;51.670;7.788;2024-02-16T07:38:45;2.27;;;2.07;;
11008;SDS011;5557;51.670;7.788;2024-02-16T07:41:12;1.60;;;1.50;;
11008;SDS011;5557;51.670;7.788;2024-02-16T07:43:39;7.43;;;2.30;;
11008;SDS011;5557;51.670;7.788;2024-02-16T07:46:06;4.07;;;1.50;;
11008;SDS011;5557;51.670;7.788;2024-02-16T07:48:34;2.47;;;1.80;;
11008;SDS011;5557;51.670;7.788;2024-02-16T07:51:02;3.73;;;1.60;;
11008;SDS011;5557;51.670;7.788;2024-02-16T07:53:30;2.27;;;2.10;;
11008;SDS011;5557;51.670;7.788;2024-02-16T07:55:58;3.10;;;2.23;;
11008;SDS011;5557;51.670;7.788;2024-02-16T07:58:25;2.10;;;2.00;;
11008;SDS011;5557;51.670;7.788;2024-02-16T08:00:52;2.27;;;2.17;;
11008;SDS011;5557;51.670;7.788;2024-02-16T08:03:22;2.13;;;1.90;;
11008;SDS011;5557;51.670;7.788;2024-02-16T08:05:49;2.63;;;1.90;;
11008;SDS011;5557;51.670;7.788;2024-02-16T08:08:16;2.53;;;2.17;;
11008;SDS011;5557;51.670;7.788;2024-02-16T08:10:43;2.17;;;1.50;;
11008;SDS011;5557;51.670;7.788;2024-02-16T08:13:11;1.63;;;1.53;;
11008;SDS011;5557;51.670;7.788;2024-02-16T08:15:38;2.00;;;1.90;;
11008;SDS011;5557;51.670;7.788;2024-02-16T08:18:05;5.50;;;2.10;;
11008;SDS011;5557;51.670;7.788;2024-02-16T08:20:32;3.30;;;1.80;;
11008;SDS011;5557;51.670;7.788;2024-02-16T08:22:59;2.80;;;1.83;;
11008;SDS011;5557;51.670;7.788;2024-02-16T08:25:26;5.47;;;2.10;;
11008;SDS011;5557;51.670;7.788;2024-02-16T08:27:54;3.57;;;1.80;;
11008;SDS011;5557;51.670;7.788;2024-02-16T08:30:21;1.90;;;1.70;;
11008;SDS011;5557;51.670;7.788;2024-02-16T08:32:49;6.60;;;2.30;;
11008;SDS011;5557;51.670;7.788;2024-02-16T08:35:17;4.50;;;1.90;;
11008;SDS011;5557;51.670;7.788;2024-02-16T08:37:45;2.23;;;2.13;;
11008;SDS011;5557;51.670;7.788;2024-02-16T08:40:12;3.70;;;2.50;;
11008;SDS011;5557;51.670;7.788;2024-02-16T08:42:42;4.00;;;2.33;;
11008;SDS011;5557;51.670;7.788;2024-02-16T08:45:10;2.93;;;2.13;;
11008;SDS011;5557;51.670;7.788;2024-02-16T08:47:39;2.77;;;2.20;;
11008;SDS011;5557;51.670;7.788;2024-02-16T08:50:07;2.60;;;2.40;;
11008;SDS011;5557;51.670;7.788;2024-02-16T08:52:38;3.57;;;2.10;;
11008;SDS011;5557;51.670;7.788;2024-02-16T08:55:05;8.43;;;2.40;;
11008;SDS011;5557;51.670;7.788;2024-02-16T08:57:34;5.33;;;2.40;;
11008;SDS011;5557;51.670;7.788;2024-02-16T09:00:01;6.07;;;2.67;;
11008;SDS011;5557;51.670;7.788;2024-02-16T09:02:30;10.20;;;2.17;;
11008;SDS011;5557;51.670;7.788;2024-02-16T09:04:57;5.13;;;2.03;;
11008;SDS011;5557;51.670;7.788;2024-02-16T09:07:24;3.50;;;2.10;;
11008;SDS011;5557;51.670;7.788;2024-02-16T09:09:53;2.47;;;2.27;;
11008;SDS011;5557;51.670;7.788;2024-02-16T09:12:20;5.83;;;2.23;;
11008;SDS011;5557;51.670;7.788;2024-02-16T09:14:47;2.30;;;2.10;;
11008;SDS011;5557;51.670;7.788;2024-02-16T09:17:14;6.77;;;3.10;;
11008;SDS011;5557;51.670;7.788;2024-02-16T09:19:41;5.40;;;2.57;;
11008;SDS011;5557;51.670;7.788;2024-02-16T09:22:08;2.47;;;2.20;;
11008;SDS011;5557;51.670;7.788;2024-02-16T09:24:35;2.40;;;2.20;;
11008;SDS011;5557;51.670;7.788;2024-02-16T09:27:03;5.83;;;2.60;;
11008;SDS011;5557;51.670;7.788;2024-02-16T09:29:31;3.57;;;2.00;;
11008;SDS011;5557;51.670;7.788;2024-02-16T09:31:59;3.77;;;2.17;;
11008;SDS011;5557;51.670;7.788;2024-02-16T09:34:27;5.63;;;2.57;;
11008;SDS011;5557;51.670;7.788;2024-02-16T09:36:54;4.10;;;2.60;;
11008;SDS011;5557;51.670;7.788;2024-02-16T09:39:21;7.20;;;2.20;;
11008;SDS011;5557;51.670;7.788;2024-02-16T09:41:50;5.00;;;2.40;;
11008;SDS011;5557;51.670;7.788;2024-02-16T09:44:20;3.90;;;2.00;;
11008;SDS011;5557;51.670;7.788;2024-02-16T09:46:48;6.33;;;2.90;;
11008;SDS011;5557;51.670;7.788;2024-02-16T09:49:18;4.80;;;2.50;;
11008;SDS011;5557;51.670;7.788;2024-02-16T09:52:01;5.93;;;3.30;;
11008;SDS011;5557;51.670;7.788;2024-02-16T09:54:32;5.23;;;2.70;;
11008;SDS011;5557;51.670;7.788;2024-02-16T09:57:03;4.10;;;3.20;;
11008;SDS011;5557;51.670;7.788;2024-02-16T09:59:31;9.63;;;6.90;;
11008;SDS011;5557;51.670;7.788;2024-02-16T10:02:02;3.50;;;3.20;;
11008;SDS011;5557;51.670;7.788;2024-02-16T10:04:30;6.70;;;2.10;;
11008;SDS011;5557;51.670;7.788;2024-02-16T10:07:02;6.83;;;2.57;;
11008;SDS011;5557;51.670;7.788;2024-02-16T10:09:38;5.67;;;2.70;;
11008;SDS011;5557;51.670;7.788;2024-02-16T10:12:08;6.50;;;2.80;;
11008;SDS011;5557;51.670;7.788;2024-02-16T10:14:35;16.27;;;2.40;;
11008;SDS011;5557;51.670;7.788;2024-02-16T10:17:03;6.83;;;2.73;;
11008;SDS011;5557;51.670;7.788;2024-02-16T10:19:32;9.40;;;2.57;;
11008;SDS011;5557;51.670;7.788;2024-02-16T10:22:10;10.17;;;2.77;;
11008;SDS011;5557;51.670;7.788;2024-02-16T10:24:38;6.43;;;2.70;;
11008;SDS011;5557;51.670;7.788;2024-02-16T10:27:13;7.13;;;2.37;;
11008;SDS011;5557;51.670;7.788;2024-02-16T10:29:46;2.60;;;2.20;;
11008;SDS011;5557;51.670;7.788;2024-02-16T10:32:17;3.33;;;3.00;;
11008;SDS011;5557;51.670;7.788;2024-02-16T10:34:46;3.90;;;3.20;;
11008;SDS011;5557;51.670;7.788;2024-02-16T10:37:16;9.33;;;2.83;;
11008;SDS011;5557;51.670;7.788;2024-02-16T10:39:44;4.43;;;2.70;;
11008;SDS011;5557;51.670;7.788;2024-02-16T10:42:11;4.83;;;2.87;;
11008;SDS011;5557;51.670;7.788;2024-02-16T10:44:41;11.67;;;2.17;;
11008;SDS011;5557;51.670;7.788;2024-02-16T10:47:10;4.83;;;2.97;;
11008;SDS011;5557;51.670;7.788;2024-02-16T10:49:37;5.63;;;2.30;;
11008;SDS011;5557;51.670;7.788;2024-02-16T10:52:04;4.87;;;2.40;;
11008;SDS011;5557;51.670;7.788;2024-02-16T10:54:33;9.37;;;2.27;;
11008;SDS011;5557;51.670;7.788;2024-02-16T10:57:01;4.23;;;2.37;;
11008;SDS011;5557;51.670;7.788;2024-02-16T10:59:43;10.67;;;2.50;;
11008;SDS011;5557;51.670;7.788;2024-02-16T11:02:12;3.33;;;1.90;;
11008;SDS011;5557;51.670;7.788;2024-02-16T11:04:40;5.17;;;2.27;;
11008;SDS011;5557;51.670;7.788;2024-02-16T11:07:14;9.60;;;2.77;;
11008;SDS011;5557;51.670;7.788;2024-02-16T11:09:43;4.43;;;2.80;;
11008;SDS011;5557;51.670;7.788;2024-02-16T11:12:14;6.73;;;2.20;;
11008;SDS011;5557;51.670;7.788;2024-02-16T11:14:46;3.63;;;2.33;;
11008;SDS011;5557;51.670;7.788;2024-02-16T11:17:20;3.33;;;2.67;;
11008;SDS011;5557;51.670;7.788;2024-02-16T11:19:48;3.63;;;2.80;;
11008;SDS011;5557;51.670;7.788;2024-02-16T11:22:17;10.53;;;3.00;;
11008;SDS011;5557;51.670;7.788;2024-02-16T11:24:50;4.03;;;2.10;;
11008;SDS011;5557;51.670;7.788;2024-02-16T11:27:24;3.10;;;2.20;;
11008;SDS011;5557;51.670;7.788;2024-02-16T11:29:52;14.07;;;2.93;;
11008;SDS011;5557;51.670;7.788;2024-02-16T11:32:19;6.23;;;2.83;;
11008;SDS011;5557;51.670;7.788;2024-02-16T11:34:47;5.70;;;2.43;;
11008;SDS011;5557;51.670;7.788;2024-02-16T11:37:15;5.10;;;2.97;;
11008;SDS011;5557;51.670;7.788;2024-02-16T11:39:43;3.10;;;2.40;;
11008;SDS011;5557;51.670;7.788;2024-02-16T11:42:13;10.43;;;2.83;;
11008;SDS011;5557;51.670;7.788;2024-02-16T11:44:53;10.20;;;2.67;;
11008;SDS011;5557;51.670;7.788;2024-02-16T11:47:23;5.50;;;3.03;;
11008;SDS011;5557;51.670;7.788;2024-02-16T11:50:03;4.20;;;2.70;;
11008;SDS011;5557;51.670;7.788;2024-02-16T11:52:31;7.00;;;2.83;;
11008;SDS011;5557;51.670;7.788;2024-02-16T11:54:59;10.00;;;3.20;;
11008;SDS011;5557;51.670;7.788;2024-02-16T11:57:31;6.73;;;3.23;;
11008;SDS011;5557;51.670;7.788;2024-02-16T11:59:58;5.97;;;2.83;;
11008;SDS011;5557;51.670;7.788;2024-02-16T12:02:30;9.50;;;2.43;;
11008;SDS011;5557;51.670;7.788;2024-02-16T12:04:58;8.20;;;3.30;;
11008;SDS011;5557;51.670;7.788;2024-02-16T12:07:29;7.80;;;3.30;;
11008;SDS011;5557;51.670;7.788;2024-02-16T12:09:57;6.80;;;3.37;;
11008;SDS011;5557;51.670;7.788;2024-02-16T12:12:26;12.13;;;2.80;;
11008;SDS011;5557;51.670;7.788;2024-02-16T12:14:54;6.50;;;2.70;;
11008;SDS011;5557;51.670;7.788;2024-02-16T12:17:22;3.47;;;3.20;;
11008;SDS011;5557;51.670;7.788;2024-02-16T12:19:50;5.70;;;3.10;;
11008;SDS011;5557;51.670;7.788;2024-02-16T12:22:19;4.63;;;3.50;;
11008;SDS011;5557;51.670;7.788;2024-02-16T12:24:50;7.63;;;3.50;;
11008;SDS011;5557;51.670;7.788;2024-02-16T12:27:17;8.90;;;3.67;;
11008;SDS011;5557;51.670;7.788;2024-02-16T12:29:45;5.43;;;3.63;;
11008;SDS011;5557;51.670;7.788;2024-02-16T12:32:13;4.97;;;3.07;;
11008;SDS011;5557;51.670;7.788;2024-02-16T12:34:45;7.30;;;4.03;;
11008;SDS011;5557;51.670;7.788;2024-02-16T12:37:13;4.00;;;3.17;;
11008;SDS011;5557;51.670;7.788;2024-02-16T12:39:40;4.50;;;3.30;;
11008;SDS011;5557;51.670;7.788;2024-02-16T12:42:07;4.93;;;3.50;;
11008;SDS011;5557;51.670;7.788;2024-02-16T12:44:35;9.80;;;3.23;;
11008;SDS011;5557;51.670;7.788;2024-02-16T12:47:02;12.13;;;3.90;;
11008;SDS011;5557;51.670;7.788;2024-02-16T12:49:29;10.30;;;3.70;;
11008;SDS011;5557;51.670;7.788;2024-02-16T12:51:57;5.87;;;3.90;;
11008;SDS011;5557;51.670;7.788;2024-02-16T12:54:24;6.37;;;3.47;;
11008;SDS011;5557;51.670;7.788;2024-02-16T12:56:51;6.77;;;3.33;;
11008;SDS011;5557;51.670;7.788;2024-02-16T12:59:20;12.77;;;3.97;;
11008;SDS011;5557;51.670;7.788;2024-02-16T13:01:47;9.33;;;3.53;;
11008;SDS011;5557;51.670;7.788;2024-02-16T13:04:14;6.20;;;3.87;;
11008;SDS011;5557;51.670;7.788;2024-02-16T13:06:48;15.67;;;4.00;;
11008;SDS011;5557;51.670;7.788;2024-02-16T13:09:17;16.53;;;4.20;;
11008;SDS011;5557;51.670;7.788;2024-02-16T13:11:44;5.50;;;4.13;;
11008;SDS011;5557;51.670;7.788;2024-02-16T13:14:11;10.83;;;4.40;;
11008;SDS011;5557;51.670;7.788;2024-02-16T13:16:39;7.80;;;3.93;;
11008;SDS011;5557;51.670;7.788;2024-02-16T13:19:06;9.60;;;4.00;;
11008;SDS011;5557;51.670;7.788;2024-02-16T13:21:33;9.00;;;3.93;;
11008;SDS011;5557;51.670;7.788;2024-02-16T13:24:01;6.03;;;3.93;;
11008;SDS011;5557;51.670;7.788;2024-02-16T13:26:29;10.97;;;4.77;;
11008;SDS011;5557;51.670;7.788;2024-02-16T13:28:56;8.13;;;4.60;;
11008;SDS011;5557;51.670;7.788;2024-02-16T13:31:24;16.13;;;4.40;;
11008;SDS011;5557;51.670;7.788;2024-02-16T13:33:52;8.07;;;4.47;;
11008;SDS011;5557;51.670;7.788;2024-02-16T13:36:21;9.30;;;6.67;;
11008;SDS011;5557;51.670;7.788;2024-02-16T13:38:48;9.13;;;4.90;;
11008;SDS011;5557;51.670;7.788;2024-02-16T13:41:15;5.27;;;4.10;;
11008;SDS011;5557;51.670;7.788;2024-02-16T13:43:46;8.60;;;3.60;;
11008;SDS011;5557;51.670;7.788;2024-02-16T13:46:13;5.93;;;3.70;;
11008;SDS011;5557;51.670;7.788;2024-02-16T13:48:41;7.50;;;4.70;;
11008;SDS011;5557;51.670;7.788;2024-02-16T13:51:09;7.60;;;4.80;;
11008;SDS011;5557;51.670;7.788;2024-02-16T13:53:36;11.37;;;4.03;;
11008;SDS011;5557;51.670;7.788;2024-02-16T13:56:04;4.73;;;4.30;;
11008;SDS011;5557;51.670;7.788;2024-02-16T13:58:33;4.80;;;3.83;;
11008;SDS011;5557;51.670;7.788;2024-02-16T14:01:01;5.00;;;4.50;;
11008;SDS011;5557;51.670;7.788;2024-02-16T14:03:30;4.93;;;3.87;;
11008;SDS011;5557;51.670;7.788;2024-02-16T14:05:59;5.13;;;4.40;;
11008;SDS011;5557;51.670;7.788;2024-02-16T14:08:27;9.97;;;4.80;;
11008;SDS011;5557;51.670;7.788;2024-02-16T14:10:54;5.97;;;4.23;;
11008;SDS011;5557;51.670;7.788;2024-02-16T14:13:21;5.27;;;4.20;;
11008;SDS011;5557;51.670;7.788;2024-02-16T14:15:51;7.30;;;5.07;;
11008;SDS011;5557;51.670;7.788;2024-02-16T14:18:18;9.20;;;4.40;;
11008;SDS011;5557;51.670;7.788;2024-02-16T14:20:59;8.47;;;5.10;;
11008;SDS011;5557;51.670;7.788;2024-02-16T14:23:29;13.13;;;5.17;;
11008;SDS011;5557;51.670;7.788;2024-02-16T14:25:56;9.03;;;5.90;;
11008;SDS011;5557;51.670;7.788;2024-02-16T14:28:24;5.90;;;5.40;;
11008;SDS011;5557;51.670;7.788;2024-02-16T14:30:51;6.93;;;5.33;;
11008;SDS011;5557;51.670;7.788;2024-02-16T14:33:19;12.20;;;5.17;;
11008;SDS011;5557;51.670;7.788;2024-02-16T14:35:59;8.50;;;5.30;;
11008;SDS011;5557;51.670;7.788;2024-02-16T14:38:27;11.97;;;5.70;;
11008;SDS011;5557;51.670;7.788;2024-02-16T14:40:54;8.03;;;5.80;;
11008;SDS011;5557;51.670;7.788;2024-02-16T14:43:21;10.00;;;5.63;;
11008;SDS011;5557;51.670;7.788;2024-02-16T14:45:48;12.83;;;6.77;;
11008;SDS011;5557;51.670;7.788;2024-02-16T14:48:16;13.57;;;6.90;;
11008;SDS011;5557;51.670;7.788;2024-02-16T14:50:43;10.33;;;6.40;;
11008;SDS011;5557;51.670;7.788;2024-02-16T14:53:10;10.87;;;7.83;;
11008;SDS011;5557;51.670;7.788;2024-02-16T14:55:37;13.47;;;6.93;;
11008;SDS011;5557;51.670;7.788;2024-02-16T14:58:04;8.23;;;7.40;;
11008;SDS011;5557;51.670;7.788;2024-02-16T15:00:32;12.80;;;7.97;;
11008;SDS011;5557;51.670;7.788;2024-02-16T15:03:02;9.37;;;7.37;;
11008;SDS011;5557;51.670;7.788;2024-02-16T15:05:30;12.67;;;8.80;;